sensor_id;sensor_type;location;lat;lon;timestamp;P1;durP1;ratioP1;P2;durP2;ratioP2
13708;SDS011;54933;51.908;7.730;2022-10-22T00:01:27;0.80;;;0.60;;
13708;SDS011;54933;51.908;7.730;2022-10-22T00:03:53;1.07;;;0.63;;
13708;SDS011;54933;51.908;7.730;2022-10-22T00:06:18;0.70;;;0.70;;
13708;SDS011;54933;51.908;7.730;2022-10-22T00:08:44;0.70;;;0.70;;
13708;SDS011;54933;51.908;7.730;2022-10-22T00:11:13;0.80;;;0.77;;
13708;SDS011;54933;51.908;7.730;2022-10-22T00:13:40;0.43;;;0.43;;
13708;SDS011;54933;51.908;7.730;2022-10-22T00:16:06;0.73;;;0.73;;
13708;SDS011;54933;51.908;7.730;2022-10-22T00:18:31;0.60;;;0.60;;
13708;SDS011;54933;51.908;7.730;2022-10-22T00:20:57;0.53;;;0.53;;
13708;SDS011;54933;51.908;7.730;2022-10-22T00:23:22;0.67;;;0.67;;
13708;SDS011;54933;51.908;7.730;2022-10-22T00:25:47;0.80;;;0.80;;
13708;SDS011;54933;51.908;7.730;2022-10-22T00:28:13;0.67;;;0.67;;
13708;SDS011;54933;51.908;7.730;2022-10-22T00:30:38;1.07;;;1.00;;
13708;SDS011;54933;51.908;7.730;2022-10-22T00:33:04;0.60;;;0.60;;
13708;SDS011;54933;51.908;7.730;2022-10-22T00:35:29;1.37;;;0.63;;
13708;SDS011;54933;51.908;7.730;2022-10-22T00:37:54;0.80;;;0.80;;
13708;SDS011;54933;51.908;7.730;2022-10-22T00:40:20;0.70;;;0.70;;
13708;SDS011;54933;51.908;7.730;2022-10-22T00:42:45;0.87;;;0.80;;
13708;SDS011;54933;51.908;7.730;2022-10-22T00:47:36;1.90;;;0.70;;
13708;SDS011;54933;51.908;7.730;2022-10-22T00:50:07;0.67;;;0.60;;
13708;SDS011;54933;51.908;7.730;2022-10-22T00:52:35;0.63;;;0.50;;
13708;SDS011;54933;51.908;7.730;2022-10-22T00:55:01;0.50;;;0.50;;
13708;SDS011;54933;51.908;7.730;2022-10-22T00:57:26;0.60;;;0.60;;
13708;SDS011;54933;51.908;7.730;2022-10-22T00:59:52;0.70;;;0.70;;
13708;SDS011;54933;51.908;7.730;2022-10-22T01:02:19;0.67;;;0.67;;
13708;SDS011;54933;51.908;7.730;2022-10-22T01:04:45;1.10;;;0.73;;
13708;SDS011;54933;51.908;7.730;2022-10-22T01:07:14;0.70;;;0.70;;
13708;SDS011;54933;51.908;7.730;2022-10-22T01:09:44;0.80;;;0.80;;
13708;SDS011;54933;51.908;7.730;2022-10-22T01:12:21;0.60;;;0.60;;
13708;SDS011;54933;51.908;7.730;2022-10-22T01:26:24;0.87;;;0.60;;
13708;SDS011;54933;51.908;7.730;2022-10-22T01:31:40;0.80;;;0.80;;
13708;SDS011;54933;51.908;7.730;2022-10-22T01:34:10;0.87;;;0.70;;
13708;SDS011;54933;51.908;7.730;2022-10-22T01:36:39;0.60;;;0.60;;
13708;SDS011;54933;51.908;7.730;2022-10-22T01:39:05;0.67;;;0.67;;
13708;SDS011;54933;51.908;7.730;2022-10-22T01:41:32;0.70;;;0.70;;
13708;SDS011;54933;51.908;7.730;2022-10-22T01:43:58;0.70;;;0.70;;
13708;SDS011;54933;51.908;7.730;2022-10-22T01:46:25;0.60;;;0.60;;
13708;SDS011;54933;51.908;7.730;2022-10-22T01:49:04;0.43;;;0.43;;
13708;SDS011;54933;51.908;7.730;2022-10-22T01:51:56;0.50;;;0.50;;
13708;SDS011;54933;51.908;7.730;2022-10-22T01:54:36;0.60;;;0.60;;
13708;SDS011;54933;51.908;7.730;2022-10-22T02:00:03;0.70;;;0.70;;
13708;SDS011;54933;51.908;7.730;2022-10-22T02:05:04;0.70;;;0.70;;
13708;SDS011;54933;51.908;7.730;2022-10-22T02:07:44;0.57;;;0.57;;
13708;SDS011;54933;51.908;7.730;2022-10-22T02:10:13;0.60;;;0.60;;
13708;SDS011;54933;51.908;7.730;2022-10-22T02:12:41;0.60;;;0.60;;
13708;SDS011;54933;51.908;7.730;2022-10-22T02:15:09;0.60;;;0.60;;
13708;SDS011;54933;51.908;7.730;2022-10-22T02:17:35;0.70;;;0.70;;
13708;SDS011;54933;51.908;7.730;2022-10-22T02:20:13;0.57;;;0.57;;
13708;SDS011;54933;51.908;7.730;2022-10-22T02:22:42;0.60;;;0.60;;
13708;SDS011;54933;51.908;7.730;2022-10-22T02:25:08;0.53;;;0.53;;
13708;SDS011;54933;51.908;7.730;2022-10-22T02:27:40;0.50;;;0.50;;
13708;SDS011;54933;51.908;7.730;2022-10-22T02:30:14;0.77;;;0.53;;
13708;SDS011;54933;51.908;7.730;2022-10-22T02:32:49;0.60;;;0.60;;
13708;SDS011;54933;51.908;7.730;2022-10-22T02:35:21;0.50;;;0.50;;
13708;SDS011;54933;51.908;7.730;2022-10-22T02:37:48;0.70;;;0.70;;
13708;SDS011;54933;51.908;7.730;2022-10-22T02:40:15;0.37;;;0.37;;
13708;SDS011;54933;51.908;7.730;2022-10-22T02:42:41;0.33;;;0.33;;
13708;SDS011;54933;51.908;7.730;2022-10-22T02:45:08;0.60;;;0.60;;
13708;SDS011;54933;51.908;7.730;2022-10-22T02:47:33;0.90;;;0.60;;
13708;SDS011;54933;51.908;7.730;2022-10-22T02:49:59;0.50;;;0.50;;
13708;SDS011;54933;51.908;7.730;2022-10-22T02:52:24;0.63;;;0.63;;
13708;SDS011;54933;51.908;7.730;2022-10-22T02:54:49;0.40;;;0.40;;
13708;SDS011;54933;51.908;7.730;2022-10-22T02:57:15;0.60;;;0.60;;
13708;SDS011;54933;51.908;7.730;2022-10-22T02:59:40;0.63;;;0.63;;
13708;SDS011;54933;51.908;7.730;2022-10-22T03:02:05;0.57;;;0.57;;
13708;SDS011;54933;51.908;7.730;2022-10-22T03:04:31;0.47;;;0.47;;
13708;SDS011;54933;51.908;7.730;2022-10-22T03:06:56;0.60;;;0.60;;
13708;SDS011;54933;51.908;7.730;2022-10-22T03:09:21;0.77;;;0.50;;
13708;SDS011;54933;51.908;7.730;2022-10-22T03:11:46;2.17;;;0.53;;
13708;SDS011;54933;51.908;7.730;2022-10-22T03:14:12;0.47;;;0.47;;
13708;SDS011;54933;51.908;7.730;2022-10-22T03:16:37;0.50;;;0.50;;
13708;SDS011;54933;51.908;7.730;2022-10-22T03:19:02;0.50;;;0.50;;
13708;SDS011;54933;51.908;7.730;2022-10-22T03:21:33;0.60;;;0.60;;
13708;SDS011;54933;51.908;7.730;2022-10-22T03:24:04;0.40;;;0.40;;
13708;SDS011;54933;51.908;7.730;2022-10-22T03:26:43;0.70;;;0.70;;
13708;SDS011;54933;51.908;7.730;2022-10-22T03:29:10;0.50;;;0.50;;
13708;SDS011;54933;51.908;7.730;2022-10-22T03:31:38;0.60;;;0.50;;
13708;SDS011;54933;51.908;7.730;2022-10-22T03:34:03;0.40;;;0.40;;
13708;SDS011;54933;51.908;7.730;2022-10-22T03:36:29;0.40;;;0.40;;
13708;SDS011;54933;51.908;7.730;2022-10-22T03:38:55;0.60;;;0.60;;
13708;SDS011;54933;51.908;7.730;2022-10-22T03:41:20;0.87;;;0.60;;
13708;SDS011;54933;51.908;7.730;2022-10-22T03:43:46;0.57;;;0.57;;
13708;SDS011;54933;51.908;7.730;2022-10-22T03:46:15;0.40;;;0.40;;
13708;SDS011;54933;51.908;7.730;2022-10-22T03:48:40;0.50;;;0.50;;
13708;SDS011;54933;51.908;7.730;2022-10-22T03:51:06;0.90;;;0.63;;
13708;SDS011;54933;51.908;7.730;2022-10-22T03:53:31;0.30;;;0.30;;
13708;SDS011;54933;51.908;7.730;2022-10-22T03:55:56;0.40;;;0.40;;
13708;SDS011;54933;51.908;7.730;2022-10-22T03:58:21;0.47;;;0.47;;
13708;SDS011;54933;51.908;7.730;2022-10-22T04:00:47;0.50;;;0.50;;
13708;SDS011;54933;51.908;7.730;2022-10-22T04:03:12;0.40;;;0.40;;
13708;SDS011;54933;51.908;7.730;2022-10-22T04:05:37;0.50;;;0.50;;
13708;SDS011;54933;51.908;7.730;2022-10-22T04:08:03;0.43;;;0.43;;
13708;SDS011;54933;51.908;7.730;2022-10-22T04:10:28;0.70;;;0.70;;
13708;SDS011;54933;51.908;7.730;2022-10-22T04:12:53;0.57;;;0.57;;
13708;SDS011;54933;51.908;7.730;2022-10-22T04:15:19;0.50;;;0.50;;
13708;SDS011;54933;51.908;7.730;2022-10-22T04:17:44;0.30;;;0.30;;
13708;SDS011;54933;51.908;7.730;2022-10-22T04:20:09;0.40;;;0.40;;
13708;SDS011;54933;51.908;7.730;2022-10-22T04:22:35;0.40;;;0.40;;
13708;SDS011;54933;51.908;7.730;2022-10-22T04:25:01;0.43;;;0.40;;
13708;SDS011;54933;51.908;7.730;2022-10-22T04:27:30;0.50;;;0.50;;
13708;SDS011;54933;51.908;7.730;2022-10-22T04:29:57;0.40;;;0.40;;
13708;SDS011;54933;51.908;7.730;2022-10-22T04:32:22;0.50;;;0.50;;
13708;SDS011;54933;51.908;7.730;2022-10-22T04:34:47;0.60;;;0.60;;
13708;SDS011;54933;51.908;7.730;2022-10-22T04:37:13;0.87;;;0.87;;
13708;SDS011;54933;51.908;7.730;2022-10-22T04:39:38;0.30;;;0.30;;
13708;SDS011;54933;51.908;7.730;2022-10-22T04:42:03;0.57;;;0.33;;
13708;SDS011;54933;51.908;7.730;2022-10-22T04:44:29;0.53;;;0.53;;
13708;SDS011;54933;51.908;7.730;2022-10-22T04:46:54;0.50;;;0.50;;
13708;SDS011;54933;51.908;7.730;2022-10-22T04:49:19;0.60;;;0.60;;
13708;SDS011;54933;51.908;7.730;2022-10-22T04:51:45;1.03;;;0.47;;
13708;SDS011;54933;51.908;7.730;2022-10-22T04:54:10;0.30;;;0.30;;
13708;SDS011;54933;51.908;7.730;2022-10-22T04:56:35;0.30;;;0.30;;
13708;SDS011;54933;51.908;7.730;2022-10-22T04:59:02;0.53;;;0.53;;
13708;SDS011;54933;51.908;7.730;2022-10-22T05:01:30;0.73;;;0.73;;
13708;SDS011;54933;51.908;7.730;2022-10-22T05:03:58;0.30;;;0.30;;
13708;SDS011;54933;51.908;7.730;2022-10-22T05:06:26;0.50;;;0.50;;
13708;SDS011;54933;51.908;7.730;2022-10-22T05:08:53;0.50;;;0.50;;
13708;SDS011;54933;51.908;7.730;2022-10-22T05:11:22;0.53;;;0.53;;
13708;SDS011;54933;51.908;7.730;2022-10-22T05:13:52;0.53;;;0.53;;
13708;SDS011;54933;51.908;7.730;2022-10-22T05:16:19;0.40;;;0.40;;
13708;SDS011;54933;51.908;7.730;2022-10-22T05:18:44;0.40;;;0.40;;
13708;SDS011;54933;51.908;7.730;2022-10-22T05:21:11;0.47;;;0.47;;
13708;SDS011;54933;51.908;7.730;2022-10-22T05:23:38;1.17;;;0.60;;
13708;SDS011;54933;51.908;7.730;2022-10-22T05:26:04;0.57;;;0.57;;
13708;SDS011;54933;51.908;7.730;2022-10-22T05:28:30;0.50;;;0.50;;
13708;SDS011;54933;51.908;7.730;2022-10-22T05:30:56;0.50;;;0.50;;
13708;SDS011;54933;51.908;7.730;2022-10-22T05:33:22;0.60;;;0.53;;
13708;SDS011;54933;51.908;7.730;2022-10-22T05:35:48;0.30;;;0.30;;
13708;SDS011;54933;51.908;7.730;2022-10-22T05:38:14;0.40;;;0.40;;
13708;SDS011;54933;51.908;7.730;2022-10-22T05:40:39;1.03;;;0.50;;
13708;SDS011;54933;51.908;7.730;2022-10-22T05:43:05;0.63;;;0.60;;
13708;SDS011;54933;51.908;7.730;2022-10-22T05:45:30;0.43;;;0.43;;
13708;SDS011;54933;51.908;7.730;2022-10-22T05:47:55;0.40;;;0.40;;
13708;SDS011;54933;51.908;7.730;2022-10-22T05:50:20;0.40;;;0.40;;
13708;SDS011;54933;51.908;7.730;2022-10-22T05:52:46;0.47;;;0.47;;
13708;SDS011;54933;51.908;7.730;2022-10-22T05:55:11;0.50;;;0.50;;
13708;SDS011;54933;51.908;7.730;2022-10-22T05:57:38;0.47;;;0.47;;
13708;SDS011;54933;51.908;7.730;2022-10-22T06:00:04;4.30;;;0.47;;
13708;SDS011;54933;51.908;7.730;2022-10-22T06:02:30;1.60;;;0.40;;
13708;SDS011;54933;51.908;7.730;2022-10-22T06:04:55;0.23;;;0.23;;
13708;SDS011;54933;51.908;7.730;2022-10-22T06:07:21;0.30;;;0.30;;
13708;SDS011;54933;51.908;7.730;2022-10-22T06:09:46;2.23;;;0.43;;
13708;SDS011;54933;51.908;7.730;2022-10-22T06:12:14;0.60;;;0.60;;
13708;SDS011;54933;51.908;7.730;2022-10-22T06:14:39;0.40;;;0.40;;
13708;SDS011;54933;51.908;7.730;2022-10-22T06:17:05;0.63;;;0.60;;
13708;SDS011;54933;51.908;7.730;2022-10-22T06:19:30;0.73;;;0.57;;
13708;SDS011;54933;51.908;7.730;2022-10-22T06:21:55;0.40;;;0.40;;
13708;SDS011;54933;51.908;7.730;2022-10-22T06:24:20;0.60;;;0.60;;
13708;SDS011;54933;51.908;7.730;2022-10-22T06:26:48;0.70;;;0.60;;
13708;SDS011;54933;51.908;7.730;2022-10-22T06:29:15;1.90;;;0.40;;
13708;SDS011;54933;51.908;7.730;2022-10-22T06:31:40;0.40;;;0.40;;
13708;SDS011;54933;51.908;7.730;2022-10-22T06:34:06;3.97;;;0.80;;
13708;SDS011;54933;51.908;7.730;2022-10-22T06:36:34;3.67;;;0.97;;
13708;SDS011;54933;51.908;7.730;2022-10-22T06:39:00;1.00;;;0.87;;
13708;SDS011;54933;51.908;7.730;2022-10-22T06:41:25;7.53;;;0.70;;
13708;SDS011;54933;51.908;7.730;2022-10-22T06:43:52;6.97;;;0.90;;
13708;SDS011;54933;51.908;7.730;2022-10-22T06:46:18;1.60;;;0.63;;
13708;SDS011;54933;51.908;7.730;2022-10-22T06:48:52;1.77;;;0.97;;
13708;SDS011;54933;51.908;7.730;2022-10-22T06:51:21;2.73;;;0.90;;
13708;SDS011;54933;51.908;7.730;2022-10-22T06:53:46;3.33;;;1.00;;
13708;SDS011;54933;51.908;7.730;2022-10-22T06:56:13;3.13;;;0.80;;
13708;SDS011;54933;51.908;7.730;2022-10-22T06:58:41;8.60;;;1.30;;
13708;SDS011;54933;51.908;7.730;2022-10-22T07:01:07;50.73;;;4.77;;
13708;SDS011;54933;51.908;7.730;2022-10-22T07:03:38;39.63;;;2.67;;
13708;SDS011;54933;51.908;7.730;2022-10-22T07:06:06;26.03;;;3.70;;
13708;SDS011;54933;51.908;7.730;2022-10-22T07:08:33;32.63;;;4.03;;
13708;SDS011;54933;51.908;7.730;2022-10-22T07:11:36;30.07;;;4.00;;
13708;SDS011;54933;51.908;7.730;2022-10-22T07:13:56;24.87;;;2.50;;
13708;SDS011;54933;51.908;7.730;2022-10-22T07:16:23;25.67;;;2.73;;
13708;SDS011;54933;51.908;7.730;2022-10-22T07:18:49;22.90;;;3.00;;
13708;SDS011;54933;51.908;7.730;2022-10-22T07:21:15;21.93;;;3.13;;
13708;SDS011;54933;51.908;7.730;2022-10-22T07:23:42;34.40;;;2.97;;
13708;SDS011;54933;51.908;7.730;2022-10-22T07:26:07;12.43;;;2.30;;
13708;SDS011;54933;51.908;7.730;2022-10-22T07:28:36;14.57;;;2.40;;
13708;SDS011;54933;51.908;7.730;2022-10-22T07:31:03;12.57;;;2.03;;
13708;SDS011;54933;51.908;7.730;2022-10-22T07:33:29;16.93;;;2.03;;
13708;SDS011;54933;51.908;7.730;2022-10-22T07:35:58;13.97;;;2.63;;
13708;SDS011;54933;51.908;7.730;2022-10-22T07:38:24;15.73;;;2.53;;
13708;SDS011;54933;51.908;7.730;2022-10-22T07:40:50;13.87;;;2.33;;
13708;SDS011;54933;51.908;7.730;2022-10-22T07:43:15;14.33;;;2.03;;
13708;SDS011;54933;51.908;7.730;2022-10-22T07:45:40;18.63;;;2.30;;
13708;SDS011;54933;51.908;7.730;2022-10-22T07:48:06;9.87;;;1.60;;
13708;SDS011;54933;51.908;7.730;2022-10-22T07:50:31;14.20;;;2.07;;
13708;SDS011;54933;51.908;7.730;2022-10-22T07:52:57;9.93;;;1.80;;
13708;SDS011;54933;51.908;7.730;2022-10-22T07:55:22;10.40;;;1.50;;
13708;SDS011;54933;51.908;7.730;2022-10-22T07:57:47;10.23;;;1.90;;
13708;SDS011;54933;51.908;7.730;2022-10-22T08:00:13;5.77;;;1.70;;
13708;SDS011;54933;51.908;7.730;2022-10-22T08:02:38;5.87;;;1.53;;
13708;SDS011;54933;51.908;7.730;2022-10-22T08:05:04;4.93;;;1.30;;
13708;SDS011;54933;51.908;7.730;2022-10-22T08:07:29;4.97;;;1.27;;
13708;SDS011;54933;51.908;7.730;2022-10-22T08:09:55;7.03;;;1.10;;
13708;SDS011;54933;51.908;7.730;2022-10-22T08:12:20;6.00;;;1.00;;
13708;SDS011;54933;51.908;7.730;2022-10-22T08:14:45;6.00;;;1.90;;
13708;SDS011;54933;51.908;7.730;2022-10-22T08:17:10;5.83;;;1.53;;
13708;SDS011;54933;51.908;7.730;2022-10-22T08:19:36;9.70;;;1.50;;
13708;SDS011;54933;51.908;7.730;2022-10-22T08:22:01;9.57;;;1.20;;
13708;SDS011;54933;51.908;7.730;2022-10-22T08:24:27;6.50;;;1.20;;
13708;SDS011;54933;51.908;7.730;2022-10-22T08:26:53;4.03;;;1.20;;
13708;SDS011;54933;51.908;7.730;2022-10-22T08:29:20;6.07;;;1.20;;
13708;SDS011;54933;51.908;7.730;2022-10-22T08:31:47;6.13;;;1.07;;
13708;SDS011;54933;51.908;7.730;2022-10-22T08:34:13;6.80;;;1.10;;
13708;SDS011;54933;51.908;7.730;2022-10-22T08:36:39;1.17;;;0.87;;
13708;SDS011;54933;51.908;7.730;2022-10-22T08:39:04;5.90;;;1.50;;
13708;SDS011;54933;51.908;7.730;2022-10-22T08:41:29;2.53;;;0.80;;
13708;SDS011;54933;51.908;7.730;2022-10-22T08:44:06;1.23;;;1.00;;
13708;SDS011;54933;51.908;7.730;2022-10-22T08:46:43;1.53;;;1.10;;
13708;SDS011;54933;51.908;7.730;2022-10-22T08:49:20;3.07;;;0.90;;
13708;SDS011;54933;51.908;7.730;2022-10-22T08:51:48;2.63;;;1.00;;
13708;SDS011;54933;51.908;7.730;2022-10-22T09:03:04;2.93;;;1.00;;
13708;SDS011;54933;51.908;7.730;2022-10-22T09:08:16;2.10;;;0.80;;
13708;SDS011;54933;51.908;7.730;2022-10-22T09:10:46;4.10;;;1.07;;
13708;SDS011;54933;51.908;7.730;2022-10-22T09:13:15;1.07;;;0.90;;
13708;SDS011;54933;51.908;7.730;2022-10-22T09:15:44;1.33;;;0.90;;
13708;SDS011;54933;51.908;7.730;2022-10-22T09:21:05;2.73;;;0.70;;
13708;SDS011;54933;51.908;7.730;2022-10-22T09:23:43;3.67;;;0.80;;
13708;SDS011;54933;51.908;7.730;2022-10-22T09:26:19;1.90;;;1.13;;
13708;SDS011;54933;51.908;7.730;2022-10-22T09:28:48;3.40;;;0.80;;
13708;SDS011;54933;51.908;7.730;2022-10-22T09:31:15;2.13;;;1.17;;
13708;SDS011;54933;51.908;7.730;2022-10-22T09:33:41;2.63;;;1.13;;
13708;SDS011;54933;51.908;7.730;2022-10-22T09:36:07;3.43;;;1.30;;
13708;SDS011;54933;51.908;7.730;2022-10-22T09:38:41;3.50;;;1.20;;
13708;SDS011;54933;51.908;7.730;2022-10-22T09:41:09;2.70;;;1.23;;
13708;SDS011;54933;51.908;7.730;2022-10-22T09:43:36;4.73;;;1.00;;
13708;SDS011;54933;51.908;7.730;2022-10-22T09:46:03;4.13;;;1.00;;
13708;SDS011;54933;51.908;7.730;2022-10-22T09:48:34;4.63;;;1.00;;
13708;SDS011;54933;51.908;7.730;2022-10-22T09:51:04;4.03;;;1.23;;
13708;SDS011;54933;51.908;7.730;2022-10-22T09:54:00;2.27;;;1.00;;
13708;SDS011;54933;51.908;7.730;2022-10-22T09:56:39;0.77;;;0.77;;
13708;SDS011;54933;51.908;7.730;2022-10-22T09:59:11;5.00;;;1.03;;
13708;SDS011;54933;51.908;7.730;2022-10-22T10:01:39;3.93;;;1.10;;
13708;SDS011;54933;51.908;7.730;2022-10-22T10:04:09;3.83;;;1.10;;
13708;SDS011;54933;51.908;7.730;2022-10-22T10:06:38;3.53;;;1.07;;
13708;SDS011;54933;51.908;7.730;2022-10-22T10:09:19;2.90;;;1.10;;
13708;SDS011;54933;51.908;7.730;2022-10-22T10:11:56;3.80;;;0.80;;
13708;SDS011;54933;51.908;7.730;2022-10-22T10:17:19;1.63;;;0.90;;
13708;SDS011;54933;51.908;7.730;2022-10-22T10:23:07;1.90;;;0.90;;
13708;SDS011;54933;51.908;7.730;2022-10-22T10:28:47;1.93;;;1.10;;
13708;SDS011;54933;51.908;7.730;2022-10-22T10:37:16;0.97;;;0.90;;
13708;SDS011;54933;51.908;7.730;2022-10-22T10:39:59;0.97;;;0.90;;
13708;SDS011;54933;51.908;7.730;2022-10-22T10:42:42;1.43;;;0.83;;
13708;SDS011;54933;51.908;7.730;2022-10-22T10:45:22;2.30;;;1.77;;
13708;SDS011;54933;51.908;7.730;2022-10-22T10:56:32;0.90;;;0.70;;
13708;SDS011;54933;51.908;7.730;2022-10-22T10:59:29;1.97;;;0.97;;
13708;SDS011;54933;51.908;7.730;2022-10-22T11:15:45;2.77;;;0.80;;
13708;SDS011;54933;51.908;7.730;2022-10-22T11:18:21;2.00;;;1.00;;
13708;SDS011;54933;51.908;7.730;2022-10-22T11:21:00;1.57;;;0.87;;
13708;SDS011;54933;51.908;7.730;2022-10-22T11:23:35;1.03;;;0.70;;
13708;SDS011;54933;51.908;7.730;2022-10-22T11:26:05;2.20;;;1.00;;
13708;SDS011;54933;51.908;7.730;2022-10-22T11:28:41;0.90;;;0.60;;
13708;SDS011;54933;51.908;7.730;2022-10-22T11:31:15;2.43;;;1.07;;
13708;SDS011;54933;51.908;7.730;2022-10-22T11:36:22;1.53;;;0.63;;
13708;SDS011;54933;51.908;7.730;2022-10-22T11:38:51;1.43;;;0.90;;
13708;SDS011;54933;51.908;7.730;2022-10-22T11:41:17;5.90;;;0.80;;
13708;SDS011;54933;51.908;7.730;2022-10-22T11:48:44;1.10;;;0.80;;
13708;SDS011;54933;51.908;7.730;2022-10-22T11:54:27;2.63;;;0.90;;
13708;SDS011;54933;51.908;7.730;2022-10-22T11:59:39;1.00;;;0.87;;
13708;SDS011;54933;51.908;7.730;2022-10-22T12:04:51;4.53;;;1.07;;
13708;SDS011;54933;51.908;7.730;2022-10-22T12:07:32;1.60;;;0.70;;
13708;SDS011;54933;51.908;7.730;2022-10-22T12:10:19;0.60;;;0.60;;
13708;SDS011;54933;51.908;7.730;2022-10-22T12:12:56;1.93;;;1.10;;
13708;SDS011;54933;51.908;7.730;2022-10-22T12:15:26;3.57;;;1.10;;
13708;SDS011;54933;51.908;7.730;2022-10-22T12:18:02;3.77;;;0.90;;
13708;SDS011;54933;51.908;7.730;2022-10-22T12:20:30;3.60;;;0.73;;
13708;SDS011;54933;51.908;7.730;2022-10-22T12:22:56;1.03;;;0.90;;
13708;SDS011;54933;51.908;7.730;2022-10-22T12:25:24;3.03;;;0.93;;
13708;SDS011;54933;51.908;7.730;2022-10-22T12:27:59;1.67;;;0.83;;
13708;SDS011;54933;51.908;7.730;2022-10-22T12:30:34;2.50;;;0.90;;
13708;SDS011;54933;51.908;7.730;2022-10-22T12:33:00;4.53;;;0.80;;
13708;SDS011;54933;51.908;7.730;2022-10-22T12:35:31;1.87;;;1.00;;
13708;SDS011;54933;51.908;7.730;2022-10-22T12:38:12;2.90;;;0.73;;
13708;SDS011;54933;51.908;7.730;2022-10-22T12:40:39;1.33;;;0.70;;
13708;SDS011;54933;51.908;7.730;2022-10-22T12:45:38;1.37;;;0.77;;
13708;SDS011;54933;51.908;7.730;2022-10-22T12:48:05;1.17;;;0.90;;
13708;SDS011;54933;51.908;7.730;2022-10-22T12:50:39;0.77;;;0.77;;
13708;SDS011;54933;51.908;7.730;2022-10-22T12:53:49;0.53;;;0.53;;
13708;SDS011;54933;51.908;7.730;2022-10-22T12:56:02;2.57;;;0.50;;
13708;SDS011;54933;51.908;7.730;2022-10-22T13:01:47;0.80;;;0.80;;
13708;SDS011;54933;51.908;7.730;2022-10-22T13:04:21;0.77;;;0.70;;
13708;SDS011;54933;51.908;7.730;2022-10-22T13:06:51;0.93;;;0.70;;
13708;SDS011;54933;51.908;7.730;2022-10-22T13:09:36;4.57;;;0.80;;
13708;SDS011;54933;51.908;7.730;2022-10-22T13:12:06;2.10;;;0.60;;
13708;SDS011;54933;51.908;7.730;2022-10-22T13:14:36;0.60;;;0.60;;
13708;SDS011;54933;51.908;7.730;2022-10-22T13:19:47;0.57;;;0.57;;
13708;SDS011;54933;51.908;7.730;2022-10-22T13:24:52;0.87;;;0.60;;
13708;SDS011;54933;51.908;7.730;2022-10-22T13:27:17;0.90;;;0.53;;
13708;SDS011;54933;51.908;7.730;2022-10-22T13:29:43;0.37;;;0.37;;
13708;SDS011;54933;51.908;7.730;2022-10-22T13:32:19;0.60;;;0.60;;
13708;SDS011;54933;51.908;7.730;2022-10-22T13:34:51;2.33;;;0.80;;
13708;SDS011;54933;51.908;7.730;2022-10-22T13:37:16;1.60;;;0.63;;
13708;SDS011;54933;51.908;7.730;2022-10-22T13:39:41;0.77;;;0.77;;
13708;SDS011;54933;51.908;7.730;2022-10-22T13:42:13;1.13;;;0.60;;
13708;SDS011;54933;51.908;7.730;2022-10-22T13:44:38;1.57;;;0.60;;
13708;SDS011;54933;51.908;7.730;2022-10-22T13:47:04;0.60;;;0.57;;
13708;SDS011;54933;51.908;7.730;2022-10-22T13:49:42;0.70;;;0.70;;
13708;SDS011;54933;51.908;7.730;2022-10-22T13:52:09;1.10;;;0.50;;
13708;SDS011;54933;51.908;7.730;2022-10-22T13:54:40;1.13;;;0.83;;
13708;SDS011;54933;51.908;7.730;2022-10-22T13:57:07;1.23;;;0.73;;
13708;SDS011;54933;51.908;7.730;2022-10-22T13:59:34;1.13;;;0.50;;
13708;SDS011;54933;51.908;7.730;2022-10-22T14:01:59;0.67;;;0.60;;
13708;SDS011;54933;51.908;7.730;2022-10-22T14:04:38;0.77;;;0.60;;
13708;SDS011;54933;51.908;7.730;2022-10-22T14:07:13;3.33;;;0.60;;
13708;SDS011;54933;51.908;7.730;2022-10-22T14:09:40;2.47;;;0.60;;
13708;SDS011;54933;51.908;7.730;2022-10-22T14:12:13;1.43;;;0.70;;
13708;SDS011;54933;51.908;7.730;2022-10-22T14:14:41;1.50;;;0.50;;
13708;SDS011;54933;51.908;7.730;2022-10-22T14:17:10;2.10;;;0.60;;
13708;SDS011;54933;51.908;7.730;2022-10-22T14:19:40;0.87;;;0.60;;
13708;SDS011;54933;51.908;7.730;2022-10-22T14:22:17;2.47;;;0.60;;
13708;SDS011;54933;51.908;7.730;2022-10-22T14:24:44;1.30;;;0.57;;
13708;SDS011;54933;51.908;7.730;2022-10-22T14:27:13;1.40;;;0.53;;
13708;SDS011;54933;51.908;7.730;2022-10-22T14:29:39;1.53;;;0.50;;
13708;SDS011;54933;51.908;7.730;2022-10-22T14:32:15;0.67;;;0.67;;
13708;SDS011;54933;51.908;7.730;2022-10-22T14:34:44;0.53;;;0.53;;
13708;SDS011;54933;51.908;7.730;2022-10-22T14:37:14;0.60;;;0.60;;
13708;SDS011;54933;51.908;7.730;2022-10-22T14:39:42;1.53;;;0.97;;
13708;SDS011;54933;51.908;7.730;2022-10-22T14:42:10;0.60;;;0.60;;
13708;SDS011;54933;51.908;7.730;2022-10-22T14:44:36;0.47;;;0.47;;
13708;SDS011;54933;51.908;7.730;2022-10-22T14:47:01;0.60;;;0.60;;
13708;SDS011;54933;51.908;7.730;2022-10-22T14:49:27;1.23;;;0.67;;
13708;SDS011;54933;51.908;7.730;2022-10-22T14:51:52;0.53;;;0.53;;
13708;SDS011;54933;51.908;7.730;2022-10-22T14:54:17;0.50;;;0.50;;
13708;SDS011;54933;51.908;7.730;2022-10-22T14:56:42;0.40;;;0.40;;
13708;SDS011;54933;51.908;7.730;2022-10-22T14:59:08;1.07;;;0.70;;
13708;SDS011;54933;51.908;7.730;2022-10-22T15:01:33;0.70;;;0.60;;
13708;SDS011;54933;51.908;7.730;2022-10-22T15:03:59;1.07;;;0.57;;
13708;SDS011;54933;51.908;7.730;2022-10-22T15:06:24;0.80;;;0.53;;
13708;SDS011;54933;51.908;7.730;2022-10-22T15:08:49;1.53;;;0.50;;
13708;SDS011;54933;51.908;7.730;2022-10-22T15:11:15;0.40;;;0.40;;
13708;SDS011;54933;51.908;7.730;2022-10-22T15:13:40;0.67;;;0.50;;
13708;SDS011;54933;51.908;7.730;2022-10-22T15:16:06;0.67;;;0.57;;
13708;SDS011;54933;51.908;7.730;2022-10-22T15:18:34;0.40;;;0.40;;
13708;SDS011;54933;51.908;7.730;2022-10-22T15:21:01;0.77;;;0.73;;
13708;SDS011;54933;51.908;7.730;2022-10-22T15:23:29;0.80;;;0.80;;
13708;SDS011;54933;51.908;7.730;2022-10-22T15:25:54;0.70;;;0.70;;
13708;SDS011;54933;51.908;7.730;2022-10-22T15:28:21;0.80;;;0.57;;
13708;SDS011;54933;51.908;7.730;2022-10-22T15:30:53;1.60;;;0.70;;
13708;SDS011;54933;51.908;7.730;2022-10-22T15:33:19;0.70;;;0.60;;
13708;SDS011;54933;51.908;7.730;2022-10-22T15:35:45;1.40;;;0.80;;
13708;SDS011;54933;51.908;7.730;2022-10-22T15:38:10;0.70;;;0.70;;
13708;SDS011;54933;51.908;7.730;2022-10-22T15:40:35;1.33;;;0.50;;
13708;SDS011;54933;51.908;7.730;2022-10-22T15:43:00;1.77;;;1.00;;
13708;SDS011;54933;51.908;7.730;2022-10-22T15:45:26;1.13;;;0.80;;
13708;SDS011;54933;51.908;7.730;2022-10-22T15:47:51;0.70;;;0.70;;
13708;SDS011;54933;51.908;7.730;2022-10-22T15:50:16;2.70;;;0.87;;
13708;SDS011;54933;51.908;7.730;2022-10-22T15:52:42;1.70;;;0.50;;
13708;SDS011;54933;51.908;7.730;2022-10-22T15:55:07;2.03;;;0.60;;
13708;SDS011;54933;51.908;7.730;2022-10-22T15:57:34;1.10;;;0.70;;
13708;SDS011;54933;51.908;7.730;2022-10-22T16:00:00;2.97;;;0.43;;
13708;SDS011;54933;51.908;7.730;2022-10-22T16:02:25;0.43;;;0.43;;
13708;SDS011;54933;51.908;7.730;2022-10-22T16:04:50;3.50;;;0.83;;
13708;SDS011;54933;51.908;7.730;2022-10-22T16:07:16;1.40;;;1.17;;
13708;SDS011;54933;51.908;7.730;2022-10-22T16:09:41;1.30;;;0.67;;
13708;SDS011;54933;51.908;7.730;2022-10-22T16:12:06;2.30;;;0.90;;
13708;SDS011;54933;51.908;7.730;2022-10-22T16:14:32;0.83;;;0.60;;
13708;SDS011;54933;51.908;7.730;2022-10-22T16:16:57;3.57;;;0.70;;
13708;SDS011;54933;51.908;7.730;2022-10-22T16:19:23;3.97;;;0.70;;
13708;SDS011;54933;51.908;7.730;2022-10-22T16:21:49;0.93;;;0.70;;
13708;SDS011;54933;51.908;7.730;2022-10-22T16:24:17;1.10;;;0.73;;
13708;SDS011;54933;51.908;7.730;2022-10-22T16:26:43;1.40;;;0.50;;
13708;SDS011;54933;51.908;7.730;2022-10-22T16:29:08;0.60;;;0.60;;
13708;SDS011;54933;51.908;7.730;2022-10-22T16:31:36;0.60;;;0.50;;
13708;SDS011;54933;51.908;7.730;2022-10-22T16:34:02;0.87;;;0.60;;
13708;SDS011;54933;51.908;7.730;2022-10-22T16:36:27;1.77;;;0.93;;